createdAt,value
2019-01-23T00:01:08.950Z,82.09
2019-01-23T00:03:40.795Z,81.51
2019-01-23T00:06:12.610Z,81.96
2019-01-23T00:08:44.623Z,82.12
2019-01-23T00:11:16.515Z,82.32
2019-01-23T00:13:48.417Z,82.08
2019-01-23T00:16:20.417Z,81.63
2019-01-23T00:18:52.335Z,81.45
2019-01-23T00:21:24.151Z,81.69
2019-01-23T00:23:56.149Z,81.69
2019-01-23T00:26:27.961Z,81.36
2019-01-23T00:28:59.705Z,80.48
2019-01-23T00:31:31.604Z,80.55
2019-01-23T00:34:03.588Z,80.11
2019-01-23T00:36:35.327Z,80.40
2019-01-23T00:39:09.215Z,80.79
2019-01-23T00:41:40.969Z,81.18
2019-01-23T00:44:12.798Z,81.10
2019-01-23T00:46:44.623Z,80.98
2019-01-23T00:49:16.708Z,80.64
2019-01-23T00:51:48.863Z,80.87
2019-01-23T00:54:21.015Z,80.39
2019-01-23T00:56:52.881Z,81.03
2019-01-23T00:59:24.663Z,81.23
2019-01-23T01:01:56.635Z,81.35
2019-01-23T01:04:29.446Z,80.87
2019-01-23T01:07:01.334Z,80.66
2019-01-23T01:09:33.411Z,80.91
2019-01-23T01:12:05.401Z,81.30
2019-01-23T01:14:37.311Z,81.43
2019-01-23T01:17:09.526Z,80.90
2019-01-23T01:19:41.311Z,80.57
2019-01-23T01:22:13.205Z,80.16
2019-01-23T01:24:45.109Z,79.94
2019-01-23T01:27:16.944Z,80.29
2019-01-23T01:29:48.775Z,80.57
2019-01-23T01:32:20.660Z,80.73
2019-01-23T01:34:52.739Z,80.98
2019-01-23T01:37:24.477Z,81.02
2019-01-23T01:39:56.382Z,80.75
2019-01-23T01:42:28.202Z,81.49
2019-01-23T01:44:59.958Z,81.09
2019-01-23T01:47:31.846Z,81.35
2019-01-23T01:50:04.561Z,80.36
2019-01-23T01:52:36.374Z,81.26
2019-01-23T01:55:09.846Z,81.00
2019-01-23T01:57:41.754Z,80.82
2019-01-23T02:00:19.901Z,80.37
2019-01-23T02:02:51.869Z,80.35
2019-01-23T02:05:23.780Z,80.55
2019-01-23T02:07:55.678Z,80.36
2019-01-23T02:10:35.121Z,80.33
2019-01-23T02:13:07.277Z,80.46
2019-01-23T02:15:39.108Z,79.88
2019-01-23T02:18:11.019Z,79.86
2019-01-23T02:20:43.192Z,79.80
2019-01-23T02:23:15.035Z,80.35
2019-01-23T02:25:46.949Z,80.29
2019-01-23T02:28:19.030Z,80.37
2019-01-23T02:30:50.789Z,79.70
2019-01-23T02:33:22.698Z,79.60
2019-01-23T02:35:54.593Z,79.93
2019-01-23T02:38:26.350Z,81.16
2019-01-23T02:40:58.184Z,81.56
2019-01-23T02:43:30.007Z,81.11
2019-01-23T02:46:01.843Z,80.63
2019-01-23T02:48:33.601Z,80.34
2019-01-23T02:51:05.508Z,80.17
2019-01-23T02:53:37.656Z,80.15
2019-01-23T02:56:10.137Z,80.11
2019-01-23T02:58:41.927Z,80.18
2019-01-23T03:01:13.773Z,80.66
2019-01-23T03:03:45.612Z,80.96
2019-01-23T03:06:17.841Z,80.89
2019-01-23T03:08:49.679Z,80.93
2019-01-23T03:11:21.763Z,81.13
2019-01-23T03:13:53.588Z,80.98
2019-01-23T03:16:25.497Z,80.45
2019-01-23T03:18:57.400Z,81.08
2019-01-23T03:21:29.246Z,81.03
2019-01-23T03:24:01.076Z,80.85
2019-01-23T03:26:32.910Z,80.72
2019-01-23T03:29:04.831Z,80.44
2019-01-23T03:31:36.843Z,79.94
2019-01-23T03:34:08.934Z,79.69
2019-01-23T03:36:40.842Z,79.74
2019-01-23T03:39:12.921Z,79.70
2019-01-23T03:41:45.123Z,79.61
2019-01-23T03:44:17.044Z,79.80
2019-01-23T03:46:49.256Z,80.45
2019-01-23T03:49:21.032Z,80.90
2019-01-23T03:51:52.962Z,80.47
2019-01-23T03:54:24.891Z,80.85
2019-01-23T03:56:56.819Z,80.67
2019-01-23T03:59:32.339Z,80.19
2019-01-23T04:02:02.364Z,80.69
2019-01-23T04:04:34.287Z,80.93
2019-01-23T04:07:06.284Z,80.39
2019-01-23T04:09:38.198Z,80.08
2019-01-23T04:12:10.168Z,80.45
2019-01-23T04:14:42.105Z,80.50
2019-01-23T04:17:14.039Z,80.80
2019-01-23T04:19:46.780Z,81.53
2019-01-23T04:22:18.886Z,80.59
2019-01-23T04:24:51.068Z,80.89
2019-01-23T04:27:23.006Z,80.88
2019-01-23T04:29:54.918Z,80.22
2019-01-23T04:32:27.086Z,80.50
2019-01-23T04:34:59.058Z,80.28
2019-01-23T04:37:31.099Z,80.01
2019-01-23T04:40:03.021Z,80.73
2019-01-23T04:42:35.060Z,80.83
2019-01-23T04:45:09.391Z,80.48
2019-01-23T04:47:42.786Z,81.32
2019-01-23T04:50:16.480Z,80.55
2019-01-23T04:53:13.217Z,81.48
2019-01-23T04:55:45.205Z,80.82
2019-01-23T04:58:17.548Z,81.48
2019-01-23T05:00:49.602Z,81.08
2019-01-23T05:03:21.539Z,81.54
2019-01-23T05:05:53.466Z,81.19
2019-01-23T05:08:25.532Z,81.03
2019-01-23T05:10:57.547Z,81.24
2019-01-23T05:13:29.623Z,81.41
2019-01-23T05:16:01.649Z,81.50
2019-01-23T05:18:33.874Z,81.69
2019-01-23T05:21:05.803Z,81.71
2019-01-23T05:23:37.984Z,81.21
2019-01-23T05:26:10.179Z,81.57
2019-01-23T05:28:42.197Z,81.95
2019-01-23T05:31:14.663Z,81.47
2019-01-23T05:33:46.704Z,81.59
2019-01-23T05:36:18.850Z,82.30
2019-01-23T05:38:50.790Z,82.20
2019-01-23T05:41:22.802Z,82.35
2019-01-23T05:43:54.841Z,81.86
2019-01-23T05:46:27.394Z,81.67
2019-01-23T05:48:59.559Z,82.11
2019-01-23T05:51:31.706Z,82.56
2019-01-23T05:54:03.635Z,82.02
2019-01-23T05:56:35.700Z,81.58
2019-01-23T05:59:07.848Z,81.68
2019-01-23T06:01:39.865Z,81.46
2019-01-23T06:04:11.882Z,81.32
2019-01-23T06:06:44.917Z,81.15
2019-01-23T06:09:16.996Z,81.42
2019-01-23T06:11:48.935Z,81.51
2019-01-23T06:14:20.893Z,81.32
2019-01-23T06:16:53.038Z,81.28
2019-01-23T06:19:25.117Z,81.28
2019-01-23T06:21:57.033Z,81.90
2019-01-23T06:24:28.993Z,81.77
2019-01-23T06:27:01.036Z,81.51
2019-01-23T06:29:32.888Z,81.69
2019-01-23T06:32:04.984Z,81.77
2019-01-23T06:34:36.962Z,81.90
2019-01-23T06:37:10.590Z,82.14
2019-01-23T06:39:42.873Z,82.12
2019-01-23T06:42:15.021Z,82.26
2019-01-23T06:44:47.625Z,82.28
2019-01-23T06:47:19.542Z,82.20
2019-01-23T06:49:51.550Z,82.39
2019-01-23T06:52:23.396Z,82.43
2019-01-23T06:54:55.704Z,82.11
2019-01-23T06:57:27.622Z,82.05
2019-01-23T06:59:59.727Z,81.84
2019-01-23T07:02:31.719Z,81.68
2019-01-23T07:05:04.062Z,81.71
2019-01-23T07:07:36.107Z,81.77
2019-01-23T07:10:12.593Z,82.15
2019-01-23T07:12:44.696Z,82.16
2019-01-23T07:15:16.667Z,82.19
2019-01-23T07:17:48.662Z,82.08
2019-01-23T07:20:23.682Z,82.17
2019-01-23T07:22:55.704Z,82.20
2019-01-23T07:25:28.833Z,82.28
2019-01-23T07:28:00.848Z,82.19
2019-01-23T07:30:43.552Z,82.04
2019-01-23T07:33:15.467Z,82.46
2019-01-23T07:35:47.712Z,82.54
2019-01-23T07:38:19.670Z,82.65
2019-01-23T07:40:51.610Z,82.40
2019-01-23T07:43:24.586Z,82.43
2019-01-23T07:45:56.586Z,82.79
2019-01-23T07:48:28.608Z,82.17
2019-01-23T07:51:00.536Z,81.58
2019-01-23T07:53:32.799Z,81.59
2019-01-23T07:56:04.739Z,81.88
2019-01-23T07:58:36.901Z,81.64
2019-01-23T08:01:09.986Z,82.05
2019-01-23T08:03:42.093Z,81.94
2019-01-23T08:06:14.068Z,81.92
2019-01-23T08:08:45.920Z,81.93
2019-01-23T08:11:17.933Z,82.00
2019-01-23T08:13:50.006Z,82.01
2019-01-23T08:16:21.944Z,81.76
2019-01-23T08:18:54.119Z,82.00
2019-01-23T08:21:25.963Z,82.05
2019-01-23T08:23:57.811Z,81.95
2019-01-23T08:26:29.706Z,82.42
2019-01-23T08:29:01.439Z,82.62
2019-01-23T08:31:33.330Z,82.58
2019-01-23T08:34:05.212Z,82.48
2019-01-23T08:36:36.957Z,82.53
2019-01-23T08:39:09.914Z,82.18
2019-01-23T08:41:41.675Z,82.62
2019-01-23T08:44:13.478Z,81.95
2019-01-23T08:46:45.424Z,82.75
2019-01-23T08:49:17.244Z,81.69
2019-01-23T08:51:48.986Z,81.25
2019-01-23T08:54:20.724Z,81.26
2019-01-23T08:56:52.544Z,81.27
2019-01-23T08:59:24.286Z,81.52
2019-01-23T09:01:56.044Z,81.39
2019-01-23T09:04:27.933Z,81.99
2019-01-23T09:06:59.678Z,81.59
2019-01-23T09:09:31.568Z,82.39
2019-01-23T09:12:03.466Z,81.55
2019-01-23T09:14:35.347Z,81.22
2019-01-23T09:17:07.374Z,81.48
2019-01-23T09:19:39.116Z,80.91
2019-01-23T09:22:10.877Z,80.83
2019-01-23T09:24:42.719Z,81.13
2019-01-23T09:27:14.627Z,81.10
2019-01-23T09:29:46.399Z,81.30
2019-01-23T09:32:58.114Z,81.33
2019-01-23T09:36:23.786Z,81.54
2019-01-23T09:40:12.304Z,81.29
2019-01-23T09:43:11.420Z,81.31
2019-01-23T09:46:45.165Z,81.19
2019-01-23T09:50:00.311Z,81.21
2019-01-23T09:53:23.515Z,81.23
2019-01-23T09:55:55.536Z,81.24
2019-01-23T09:58:27.358Z,81.03
2019-01-23T10:00:59.794Z,80.70
2019-01-23T10:03:31.831Z,80.99
2019-01-23T10:06:03.905Z,80.70
2019-01-23T10:08:35.788Z,80.92
2019-01-23T10:11:07.759Z,80.84
2019-01-23T10:13:39.602Z,80.86
2019-01-23T10:16:18.275Z,81.07
2019-01-23T10:18:55.988Z,80.64
2019-01-23T10:21:23.927Z,80.88
2019-01-23T10:23:55.711Z,81.24
2019-01-23T10:26:27.710Z,80.86
2019-01-23T10:28:59.555Z,80.75
2019-01-23T10:31:31.395Z,80.44
2019-01-23T10:34:03.239Z,80.16
2019-01-23T10:36:35.066Z,80.20
2019-01-23T10:39:09.684Z,80.50
2019-01-23T10:41:41.687Z,80.49
2019-01-23T10:44:13.604Z,81.38
2019-01-23T10:46:45.507Z,80.97
2019-01-23T10:49:17.425Z,81.38
2019-01-23T10:51:49.377Z,80.94
2019-01-23T10:54:21.489Z,80.69
2019-01-23T10:56:53.574Z,81.33
2019-01-23T10:59:25.488Z,81.58
2019-01-23T11:01:57.418Z,81.53
2019-01-23T11:04:29.363Z,81.28
2019-01-23T11:07:01.273Z,80.84
2019-01-23T11:09:33.195Z,81.36
2019-01-23T11:12:05.283Z,80.99
2019-01-23T11:14:37.126Z,80.62
2019-01-23T11:17:09.760Z,80.74
2019-01-23T11:19:41.707Z,80.51
2019-01-23T11:22:13.628Z,80.51
2019-01-23T11:24:45.542Z,80.28
2019-01-23T11:27:17.375Z,80.55
2019-01-23T11:29:49.307Z,80.08
2019-01-23T11:32:21.218Z,80.35
2019-01-23T11:34:53.132Z,80.18
2019-01-23T11:37:25.045Z,80.25
2019-01-23T11:39:57.043Z,80.32
2019-01-23T11:42:29.003Z,80.52
2019-01-23T11:45:00.849Z,80.19
2019-01-23T11:47:33.260Z,80.64
2019-01-23T11:50:06.807Z,80.44
2019-01-23T11:52:38.783Z,80.19
2019-01-23T11:55:11.200Z,80.38
2019-01-23T11:57:43.116Z,80.29
2019-01-23T12:00:19.266Z,80.87
2019-01-23T12:02:51.425Z,81.07
2019-01-23T12:05:24.195Z,80.75
2019-01-23T12:07:56.450Z,80.87
2019-01-23T12:10:28.381Z,80.38
2019-01-23T12:13:00.298Z,80.12
2019-01-23T12:15:32.144Z,80.00
2019-01-23T12:18:04.154Z,79.90
2019-01-23T12:20:36.077Z,80.17
2019-01-23T12:23:08.064Z,79.21
2019-01-23T12:25:40.055Z,79.38
2019-01-23T12:28:11.965Z,79.29
2019-01-23T12:30:43.890Z,79.63
2019-01-23T12:33:23.078Z,79.24
2019-01-23T12:35:54.983Z,79.22
2019-01-23T12:38:26.899Z,78.61
2019-01-23T12:40:58.758Z,78.30
2019-01-23T12:43:30.661Z,78.56
2019-01-23T12:46:02.587Z,78.83
2019-01-23T12:48:34.567Z,78.66
2019-01-23T12:51:06.759Z,78.37
2019-01-23T12:53:38.678Z,78.18
2019-01-23T12:56:10.669Z,78.19
2019-01-23T12:58:42.578Z,78.38
2019-01-23T13:01:15.672Z,78.23
2019-01-23T13:03:47.715Z,78.10
2019-01-23T13:06:19.746Z,77.81
2019-01-23T13:08:51.726Z,78.09
2019-01-23T13:11:23.643Z,77.65
2019-01-23T13:13:55.551Z,77.57
2019-01-23T13:16:27.543Z,77.05
2019-01-23T13:18:59.446Z,77.32
2019-01-23T13:21:32.334Z,77.66
2019-01-23T13:24:04.315Z,76.85
2019-01-23T13:26:36.229Z,76.53
2019-01-23T13:29:08.134Z,76.16
2019-01-23T13:31:40.052Z,76.35
2019-01-23T13:34:11.962Z,76.07
2019-01-23T13:36:43.815Z,76.28
2019-01-23T13:39:19.189Z,76.52
2019-01-23T13:41:51.105Z,77.07
2019-01-23T13:44:23.072Z,77.40
2019-01-23T13:46:55.000Z,77.56
2019-01-23T13:49:26.838Z,77.44
2019-01-23T13:51:58.684Z,77.44
2019-01-23T13:54:30.608Z,76.72
2019-01-23T13:57:02.779Z,76.66
2019-01-23T13:59:34.758Z,76.62
2019-01-23T14:02:06.685Z,76.89
2019-01-23T14:04:38.611Z,77.30
2019-01-23T14:07:10.456Z,77.24
2019-01-23T14:09:42.219Z,76.82
2019-01-23T14:12:14.151Z,77.30
2019-01-23T14:14:46.232Z,76.88
2019-01-23T14:17:18.002Z,76.72
2019-01-23T14:19:49.920Z,77.03
2019-01-23T14:22:21.765Z,77.27
2019-01-23T14:24:53.605Z,76.65
2019-01-23T14:27:25.539Z,76.65
2019-01-23T14:29:57.529Z,76.94
2019-01-23T14:32:29.557Z,76.68
2019-01-23T14:35:01.575Z,76.19
2019-01-23T14:37:33.500Z,76.79
2019-01-23T14:40:06.076Z,77.08
2019-01-23T14:42:38.061Z,76.73
2019-01-23T14:45:10.685Z,77.13
2019-01-23T14:47:42.911Z,76.96
2019-01-23T14:50:15.209Z,76.93
2019-01-23T14:52:47.539Z,77.00
2019-01-23T14:55:19.549Z,76.42
2019-01-23T14:57:51.567Z,76.82
2019-01-23T15:00:26.286Z,76.44
2019-01-23T15:02:58.209Z,76.78
2019-01-23T15:05:49.044Z,77.57
2019-01-23T15:08:20.895Z,77.51
2019-01-23T15:10:52.732Z,78.02
2019-01-23T15:13:24.658Z,77.13
2019-01-23T15:15:56.507Z,76.94
2019-01-23T15:18:28.421Z,76.92
2019-01-23T15:21:00.401Z,77.49
2019-01-23T15:23:32.326Z,77.81
2019-01-23T15:26:04.158Z,77.89
2019-01-23T15:28:36.087Z,78.15
2019-01-23T15:31:08.262Z,78.08
2019-01-23T15:33:40.101Z,77.90
2019-01-23T15:36:12.043Z,77.42
2019-01-23T15:38:44.030Z,76.41
2019-01-23T15:41:15.932Z,77.60
2019-01-23T15:43:47.772Z,77.57
2019-01-23T15:46:19.676Z,77.30
2019-01-23T15:48:51.517Z,77.08
2019-01-23T15:51:23.269Z,78.00
2019-01-23T15:53:55.112Z,77.73
2019-01-23T15:56:27.024Z,77.95
2019-01-23T15:58:58.870Z,77.67
2019-01-23T16:01:30.852Z,78.07
2019-01-23T16:04:02.783Z,78.71
2019-01-23T16:06:35.656Z,78.80
2019-01-23T16:09:08.518Z,80.71
2019-01-23T16:11:40.351Z,80.15
2019-01-23T16:14:12.202Z,80.88
2019-01-23T16:16:44.188Z,81.49
2019-01-23T16:19:15.959Z,81.65
2019-01-23T16:21:47.871Z,81.16
2019-01-23T16:24:20.035Z,81.22
2019-01-23T16:26:51.867Z,82.08
2019-01-23T16:29:23.785Z,82.44
2019-01-23T16:31:56.666Z,82.94
2019-01-23T16:34:28.507Z,82.17
2019-01-23T16:37:00.519Z,83.05
2019-01-23T16:39:32.676Z,82.64
2019-01-23T16:42:04.643Z,82.20
2019-01-23T16:44:36.635Z,81.91
2019-01-23T16:47:08.626Z,82.41
2019-01-23T16:49:40.475Z,83.28
2019-01-23T16:52:12.393Z,83.99
2019-01-23T16:54:44.311Z,83.98
2019-01-23T16:57:16.223Z,83.60
2019-01-23T16:59:48.141Z,83.71
2019-01-23T17:02:19.977Z,83.52
2019-01-23T17:04:52.974Z,83.54
2019-01-23T17:07:24.912Z,83.66
2019-01-23T17:09:56.802Z,83.61
2019-01-23T17:12:29.637Z,83.61
2019-01-23T17:15:01.818Z,83.64
2019-01-23T17:17:34.699Z,83.89
2019-01-23T17:20:08.971Z,83.87
2019-01-23T17:22:40.811Z,83.69
2019-01-23T17:25:12.998Z,82.99
2019-01-23T17:27:44.911Z,82.82
2019-01-23T17:30:17.809Z,82.36
2019-01-23T17:32:49.801Z,82.08
2019-01-23T17:35:22.439Z,82.01
2019-01-23T17:37:54.414Z,81.92
2019-01-23T17:40:26.370Z,81.87
2019-01-23T17:42:58.516Z,81.42
2019-01-23T17:45:33.712Z,80.88
2019-01-23T17:48:08.505Z,81.47
2019-01-23T17:50:41.475Z,81.37
2019-01-23T17:53:13.520Z,81.43
2019-01-23T17:55:45.536Z,80.84
2019-01-23T17:58:17.797Z,81.14
2019-01-23T18:00:57.328Z,81.11
2019-01-23T18:03:29.235Z,81.21
2019-01-23T18:06:01.235Z,81.66
2019-01-23T18:08:33.066Z,81.31
2019-01-23T18:11:05.336Z,81.70
2019-01-23T18:13:37.195Z,81.44
2019-01-23T18:16:12.491Z,81.39
2019-01-23T18:18:44.573Z,81.15
2019-01-23T18:21:16.493Z,81.51
2019-01-23T18:23:48.599Z,81.74
2019-01-23T18:26:20.520Z,81.44
2019-01-23T18:28:52.498Z,81.68
2019-01-23T18:31:53.216Z,81.80
2019-01-23T18:35:16.795Z,82.09
2019-01-23T18:38:19.276Z,82.21
2019-01-23T18:41:38.446Z,81.66
2019-01-23T18:44:53.247Z,81.49
2019-01-23T18:48:11.371Z,81.88
2019-01-23T18:51:48.558Z,81.84
2019-01-23T18:54:20.538Z,82.75
2019-01-23T18:56:52.464Z,83.18
2019-01-23T18:59:24.481Z,83.31
2019-01-23T19:01:56.650Z,83.56
2019-01-23T19:04:28.507Z,83.59
2019-01-23T19:07:00.433Z,83.34
2019-01-23T19:09:32.340Z,83.03
2019-01-23T19:12:04.431Z,82.82
2019-01-23T19:14:36.266Z,83.63
2019-01-23T19:17:08.204Z,83.19
2019-01-23T19:19:40.104Z,82.75
2019-01-23T19:22:12.292Z,83.29
2019-01-23T19:24:45.032Z,83.35
2019-01-23T19:27:16.950Z,83.66
2019-01-23T19:29:48.788Z,83.29
2019-01-23T19:32:21.128Z,83.78
2019-01-23T19:34:53.066Z,83.79
2019-01-23T19:37:25.730Z,83.44
2019-01-23T19:39:57.581Z,83.76
2019-01-23T19:42:29.510Z,83.50
2019-01-23T19:45:01.365Z,83.92
2019-01-23T19:47:33.290Z,83.80
2019-01-23T19:50:06.353Z,84.09
2019-01-23T19:52:38.470Z,84.04
2019-01-23T19:55:12.765Z,84.14
2019-01-23T19:57:44.789Z,83.79
2019-01-23T20:00:22.720Z,84.10
2019-01-23T20:02:54.704Z,84.00
2019-01-23T20:05:34.540Z,83.92
2019-01-23T20:08:06.705Z,83.84
2019-01-23T20:10:38.630Z,83.85
2019-01-23T20:13:10.550Z,83.37
2019-01-23T20:15:42.470Z,83.57
2019-01-23T20:18:14.469Z,83.27
2019-01-23T20:20:46.387Z,83.23
2019-01-23T20:23:18.260Z,82.99
2019-01-23T20:25:50.184Z,82.99
2019-01-23T20:28:22.112Z,82.69
2019-01-23T20:30:54.031Z,82.80
2019-01-23T20:33:28.182Z,82.55
2019-01-23T20:35:59.764Z,82.65
2019-01-23T20:38:31.544Z,82.64
2019-01-23T20:41:03.395Z,82.51
2019-01-23T20:43:35.244Z,82.60
2019-01-23T20:46:07.178Z,82.33
2019-01-23T20:48:39.042Z,82.18
2019-01-23T20:51:11.170Z,82.18
2019-01-23T20:53:43.082Z,82.46
2019-01-23T20:56:15.244Z,82.43
2019-01-23T20:58:47.085Z,82.26
2019-01-23T21:01:18.996Z,81.84
2019-01-23T21:03:51.004Z,82.18
2019-01-23T21:06:23.012Z,81.73
2019-01-23T21:08:54.925Z,81.27
2019-01-23T21:11:26.832Z,81.56
2019-01-23T21:13:58.923Z,81.59
2019-01-23T21:16:30.834Z,81.89
2019-01-23T21:19:02.680Z,82.03
2019-01-23T21:21:34.588Z,82.59
2019-01-23T21:24:06.584Z,82.34
2019-01-23T21:26:38.498Z,82.37
2019-01-23T21:29:10.420Z,82.07
2019-01-23T21:31:42.365Z,82.48
2019-01-23T21:34:14.489Z,82.33
2019-01-23T21:36:46.411Z,82.36
2019-01-23T21:39:18.261Z,82.00
2019-01-23T21:41:52.947Z,81.97
2019-01-23T21:44:24.869Z,82.06
2019-01-23T21:46:57.032Z,81.83
2019-01-23T21:49:28.961Z,81.76
2019-01-23T21:52:00.799Z,82.26
2019-01-23T21:54:32.645Z,82.62
2019-01-23T21:57:05.599Z,82.39
2019-01-23T21:59:37.513Z,81.99
2019-01-23T22:02:09.544Z,81.87
2019-01-23T22:04:41.522Z,81.75
2019-01-23T22:07:13.366Z,81.82
2019-01-23T22:09:45.231Z,82.25
2019-01-23T22:12:17.086Z,82.47
2019-01-23T22:14:48.957Z,82.40
2019-01-23T22:17:20.801Z,82.45
2019-01-23T22:19:52.665Z,82.00
2019-01-23T22:22:25.486Z,82.33
2019-01-23T22:24:57.365Z,82.45
2019-01-23T22:27:29.281Z,82.71
2019-01-23T22:30:01.219Z,82.53
2019-01-23T22:32:33.406Z,82.74
2019-01-23T22:35:06.620Z,82.68
2019-01-23T22:37:39.119Z,82.87
2019-01-23T22:40:12.376Z,82.91
2019-01-23T22:42:44.287Z,82.98
2019-01-23T22:45:18.571Z,82.80
2019-01-23T22:47:50.706Z,83.07
2019-01-23T22:50:25.532Z,82.83
2019-01-23T22:52:57.521Z,82.57
2019-01-23T22:55:29.464Z,82.85
2019-01-23T22:58:01.371Z,82.91
2019-01-23T23:01:21.599Z,83.14
2019-01-23T23:03:53.470Z,82.90
2019-01-23T23:06:25.428Z,82.65
2019-01-23T23:08:57.267Z,82.73
2019-01-23T23:11:29.454Z,82.85
2019-01-23T23:14:01.383Z,82.61
2019-01-23T23:16:33.233Z,82.17
2019-01-23T23:19:05.228Z,82.65
2019-01-23T23:21:37.076Z,82.72
2019-01-23T23:24:09.633Z,82.70
2019-01-23T23:26:41.826Z,82.94
2019-01-23T23:29:13.739Z,83.33
2019-01-23T23:31:45.766Z,83.76
2019-01-23T23:34:17.688Z,83.86
2019-01-23T23:36:49.618Z,84.12
2019-01-23T23:39:21.540Z,84.10
2019-01-23T23:41:53.465Z,84.21
2019-01-23T23:44:25.355Z,83.72
2019-01-23T23:46:57.245Z,83.33
2019-01-23T23:49:29.162Z,83.15
2019-01-23T23:52:01.093Z,83.69
2019-01-23T23:54:33.268Z,83.42
2019-01-23T23:57:05.205Z,84.30
2019-01-23T23:59:37.121Z,84.10
